Kezdőlap
METAR-TAF:

METAR-TAF

Repülőterek :

Tongatapu, Tonga

földrajzi szélesség: 21-14S, földrajzi hosszúság: 175-09W, magasság: 38 m

Jelenlegi meteorológiai megfigyelések

A jelentés 5 perccel ezelõtt készült, 08:00 UTC
Délkeleti szél 6 kt
Hőmérséklet 26°C
Páratartalom 84%
Légköri nyomás 1010 hPa
Látótávolság 10 km, vagy több
Kevés felhő 1600 lábon

METAR: NFTF 230800Z 13006KT 9999 FEW016 26/23 Q1010

Idő: 21:05 (08:05 UTC)

Előrejelzés

A jelentés 2 órával és 39 perccel ezelõtt készült, 05:26 UTC
Az előrejelzés 23-én 06 óra UTC és 24-én 06 óra UTC között érvényes
Kelet-délkeleti szél 9 kt
Látótávolság 10 km, vagy több
Kevés felhő 1000 lábon
Szórványos felhőzet 1700 lábon

TAF: NFTF 230526Z 2306/2406 12009KT 9999 FEW010 SCT017

Meteorológiai megfigyelések és előrejelzések több, mint 4000 repülőtéren (METAR és TAF jelentéseket).

A térképen piros és sárga pontok jelzik az elérhető meteorológiai állomásokat.

Mozgassa az egeret a pont fölött, hogy megjelenjen az állomás neve.

Azután kattintson az időjárási megfigyelések és előrejelzések megtekintéséhez.

A térkép megváltoztatása: kattintson a fekete keresztel jelölt zöld gombra ráközelítéshez, a vonallal jelölt zöld gombra távolításhoz, vagy a zöld nyilakra a szomszédos térképek eléréséhez.


METAR-TAF: